createdAt,value
2019-02-21T00:01:51.841Z,96962.88
2019-02-21T00:04:41.254Z,96965.58
2019-02-21T00:07:30.912Z,96969.52
2019-02-21T00:10:20.466Z,96970.02
2019-02-21T00:13:10.005Z,96968.69
2019-02-21T00:15:59.792Z,96964.00
2019-02-21T00:18:48.978Z,96966.74
2019-02-21T00:21:38.263Z,96968.12
2019-02-21T00:24:28.126Z,96966.22
2019-02-21T00:27:17.368Z,96962.91
2019-02-21T00:30:06.890Z,96970.42
2019-02-21T00:32:56.476Z,96966.15
2019-02-21T00:35:46.147Z,96970.59
2019-02-21T00:38:36.776Z,96972.43
2019-02-21T00:41:26.418Z,96970.16
2019-02-21T00:44:15.579Z,96965.45
2019-02-21T00:47:05.016Z,96969.09
2019-02-21T00:49:54.294Z,96972.77
2019-02-21T00:52:44.339Z,96974.17
2019-02-21T00:55:33.886Z,96969.52
2019-02-21T00:58:23.317Z,96966.69
2019-02-21T01:01:13.262Z,96971.77
2019-02-21T01:04:02.719Z,96971.69
2019-02-21T01:06:52.407Z,96968.59
2019-02-21T01:09:41.995Z,96964.75
2019-02-21T01:12:31.810Z,96963.44
2019-02-21T01:15:22.082Z,96964.14
2019-02-21T01:18:11.729Z,96967.81
2019-02-21T01:21:01.176Z,96973.09
2019-02-21T01:23:50.344Z,96965.34
2019-02-21T01:26:39.554Z,96969.02
2019-02-21T01:29:29.408Z,96965.22
2019-02-21T01:32:18.955Z,96968.52
2019-02-21T01:35:08.925Z,96962.80
2019-02-21T01:37:58.332Z,96966.08
2019-02-21T01:40:48.291Z,96965.98
2019-02-21T01:43:37.441Z,96966.34
2019-02-21T01:46:26.308Z,96969.16
2019-02-21T01:49:15.569Z,96968.89
2019-02-21T01:52:04.868Z,96970.59
2019-02-21T01:54:54.514Z,96965.14
2019-02-21T01:57:43.916Z,96972.20
2019-02-21T02:00:33.446Z,96970.80
2019-02-21T02:03:22.594Z,96971.16
2019-02-21T02:06:12.172Z,96970.53
2019-02-21T02:09:02.644Z,96970.09
2019-02-21T02:11:52.025Z,96976.17
2019-02-21T02:14:41.986Z,96973.40
2019-02-21T02:17:31.489Z,96968.39
2019-02-21T02:20:20.905Z,96972.50
2019-02-21T02:23:10.481Z,96969.09
2019-02-21T02:26:00.423Z,96972.12
2019-02-21T02:28:49.943Z,96971.02
2019-02-21T02:31:39.669Z,96973.50
2019-02-21T02:34:28.786Z,96970.45
2019-02-21T02:37:17.903Z,96972.98
2019-02-21T02:40:07.942Z,96968.12
2019-02-21T02:42:57.655Z,96967.55
2019-02-21T02:45:46.897Z,96964.05
2019-02-21T02:48:37.197Z,96966.28
2019-02-21T02:51:26.497Z,96969.02
2019-02-21T02:54:15.900Z,96970.66
2019-02-21T02:57:05.503Z,96965.38
2019-02-21T02:59:54.909Z,96969.96
2019-02-21T03:02:44.348Z,96966.48
2019-02-21T03:05:34.084Z,96969.83
2019-02-21T03:08:23.964Z,96969.02
2019-02-21T03:11:13.742Z,96978.28
2019-02-21T03:14:03.030Z,96975.87
2019-02-21T03:16:52.230Z,96975.87
2019-02-21T03:19:41.780Z,96977.44
2019-02-21T03:22:31.252Z,96978.41
2019-02-21T03:25:20.738Z,96982.02
2019-02-21T03:28:10.432Z,96988.50
2019-02-21T03:30:59.846Z,96992.23
2019-02-21T03:33:49.014Z,96996.55
2019-02-21T03:36:39.371Z,96995.84
2019-02-21T03:39:28.534Z,97003.30
2019-02-21T03:42:18.175Z,97008.80
2019-02-21T03:45:08.945Z,96996.88
2019-02-21T03:47:58.983Z,97000.98
2019-02-21T03:50:48.682Z,97000.42
2019-02-21T03:53:38.426Z,96997.30
2019-02-21T03:56:27.617Z,97004.80
2019-02-21T03:59:17.408Z,97004.07
2019-02-21T04:02:06.849Z,97013.86
2019-02-21T04:04:56.582Z,97002.16
2019-02-21T04:07:45.919Z,96998.06
2019-02-21T04:10:35.910Z,97001.33
2019-02-21T04:13:25.726Z,97001.86
2019-02-21T04:16:15.534Z,96996.11
2019-02-21T04:19:05.057Z,96993.84
2019-02-21T04:21:55.112Z,96993.39
2019-02-21T04:24:44.952Z,96989.64
2019-02-21T04:27:34.549Z,96986.70
2019-02-21T04:30:24.116Z,96981.51
2019-02-21T04:33:13.327Z,96989.09
2019-02-21T04:36:03.083Z,96988.95
2019-02-21T04:38:52.497Z,96982.88
2019-02-21T04:41:41.699Z,96987.92
2019-02-21T04:44:31.727Z,96984.58
2019-02-21T04:47:21.371Z,96903.38
2019-02-21T04:50:11.200Z,96978.37
2019-02-21T04:53:00.538Z,96974.90
2019-02-21T04:55:50.272Z,96972.30
2019-02-21T04:58:39.761Z,96968.01
2019-02-21T05:01:30.575Z,96965.08
2019-02-21T05:04:19.863Z,96973.91
2019-02-21T05:07:09.488Z,96971.19
2019-02-21T05:09:59.243Z,96964.48
2019-02-21T05:12:48.458Z,96970.41
2019-02-21T05:15:37.923Z,96971.66
2019-02-21T05:18:27.505Z,96972.80
2019-02-21T05:21:17.144Z,96973.16
2019-02-21T05:24:08.867Z,96973.48
2019-02-21T05:27:07.284Z,96975.19
2019-02-21T05:29:56.390Z,96972.19
2019-02-21T05:33:01.170Z,96973.02
2019-02-21T05:36:03.890Z,96974.47
2019-02-21T05:39:24.929Z,96977.04
2019-02-21T05:42:21.214Z,96975.99
2019-02-21T05:45:35.808Z,96981.09
2019-02-21T05:48:33.152Z,96979.79
2019-02-21T05:51:31.568Z,96981.30
2019-02-21T05:54:39.951Z,96986.19
2019-02-21T05:57:51.755Z,96991.14
2019-02-21T06:01:00.066Z,96995.34
2019-02-21T06:04:19.313Z,97006.41
2019-02-21T06:07:27.265Z,97004.45
2019-02-21T06:10:34.967Z,97000.54
2019-02-21T06:13:46.687Z,97005.35
2019-02-21T06:16:53.365Z,97009.70
2019-02-21T06:20:02.199Z,97009.73
2019-02-21T06:23:02.542Z,97009.81
2019-02-21T06:26:10.681Z,97018.13
2019-02-21T06:29:10.480Z,97020.77
2019-02-21T06:32:00.026Z,97026.53
2019-02-21T06:34:49.231Z,97023.66
2019-02-21T06:37:38.415Z,97026.20
2019-02-21T06:40:27.811Z,97019.92
2019-02-21T06:43:17.447Z,97024.94
2019-02-21T06:46:06.985Z,97030.19
2019-02-21T06:48:56.653Z,97032.66
2019-02-21T06:51:46.345Z,97036.64
2019-02-21T06:54:35.522Z,97033.64
2019-02-21T06:57:25.039Z,97037.08
2019-02-21T07:00:14.556Z,97037.79
2019-02-21T07:03:15.238Z,97045.44
2019-02-21T07:05:55.509Z,97039.75
2019-02-21T07:08:45.208Z,97041.25
2019-02-21T07:11:34.573Z,97036.95
2019-02-21T07:14:24.102Z,97043.80
2019-02-21T07:17:13.532Z,97039.58
2019-02-21T07:20:03.481Z,97035.25
2019-02-21T07:22:52.701Z,97037.59
2019-02-21T07:26:03.719Z,97032.16
2019-02-21T07:28:53.377Z,97041.47
2019-02-21T07:31:42.650Z,97033.98
2019-02-21T07:34:32.256Z,97039.58
2019-02-21T07:37:21.795Z,97037.53
2019-02-21T07:40:19.675Z,97036.83
2019-02-21T07:43:03.722Z,97035.13
2019-02-21T07:45:53.196Z,97040.25
2019-02-21T07:48:43.240Z,97047.17
2019-02-21T07:51:32.703Z,97035.91
2019-02-21T07:54:22.347Z,97039.49
2019-02-21T07:57:11.615Z,97043.03
2019-02-21T08:00:01.411Z,97042.94
2019-02-21T08:02:50.589Z,97034.91
2019-02-21T08:05:40.122Z,97037.72
2019-02-21T08:08:32.276Z,97039.05
2019-02-21T08:11:20.544Z,97042.41
2019-02-21T08:14:11.220Z,97037.28
2019-02-21T08:17:00.745Z,97033.16
2019-02-21T08:19:50.188Z,97025.59
2019-02-21T08:22:39.778Z,97028.36
2019-02-21T08:25:29.230Z,97025.95
2019-02-21T08:28:18.417Z,97031.55
2019-02-21T08:31:07.911Z,97028.94
2019-02-21T08:34:05.362Z,97031.17
2019-02-21T08:36:54.642Z,97027.06
2019-02-21T08:39:44.251Z,97022.48
2019-02-21T08:42:33.721Z,97028.77
2019-02-21T08:45:23.108Z,97027.77
2019-02-21T08:48:13.506Z,97023.78
2019-02-21T08:51:06.082Z,97023.98
2019-02-21T08:53:54.758Z,97026.29
2019-02-21T08:56:44.296Z,97027.03
2019-02-21T08:59:33.750Z,97030.92
2019-02-21T09:02:23.734Z,97026.72
2019-02-21T09:05:13.162Z,97027.64
2019-02-21T09:08:03.163Z,97027.94
2019-02-21T09:10:52.929Z,97037.75
2019-02-21T09:13:42.517Z,97039.03
2019-02-21T09:16:32.098Z,97035.84
2019-02-21T09:19:21.460Z,97034.96
2019-02-21T09:22:15.253Z,97046.30
2019-02-21T09:25:10.004Z,97051.77
2019-02-21T09:27:59.972Z,97046.75
2019-02-21T09:30:49.770Z,97040.05
2019-02-21T09:33:38.996Z,97046.17
2019-02-21T09:36:28.376Z,97038.55
2019-02-21T09:39:17.893Z,97042.09
2019-02-21T09:42:08.048Z,97038.04
2019-02-21T09:44:57.320Z,97038.94
2019-02-21T09:47:47.239Z,97042.38
2019-02-21T09:50:36.717Z,97050.33
2019-02-21T09:53:26.549Z,97051.45
2019-02-21T09:56:16.000Z,97060.78
2019-02-21T09:59:06.799Z,97063.98
2019-02-21T10:01:57.603Z,97061.67
2019-02-21T10:04:47.359Z,97054.02
2019-02-21T10:07:37.627Z,97058.83
2019-02-21T10:10:26.805Z,97048.60
2019-02-21T10:13:16.517Z,97068.11
2019-02-21T10:16:06.115Z,97064.01
2019-02-21T10:18:55.857Z,97059.05
2019-02-21T10:21:45.320Z,97070.38
2019-02-21T10:24:35.026Z,97058.91
2019-02-21T10:27:24.304Z,97064.12
2019-02-21T10:30:14.721Z,97054.70
2019-02-21T10:33:04.125Z,97050.44
2019-02-21T10:35:53.737Z,97051.16
2019-02-21T10:38:42.998Z,97041.64
2019-02-21T10:41:32.921Z,97037.02
2019-02-21T10:44:22.239Z,97032.73
2019-02-21T10:47:12.283Z,97031.17
2019-02-21T10:50:01.748Z,97029.29
2019-02-21T10:52:51.646Z,97027.09
2019-02-21T10:55:40.845Z,97025.16
2019-02-21T10:58:30.666Z,97014.46
2019-02-21T11:01:20.811Z,97012.98
2019-02-21T11:04:12.840Z,97015.18
2019-02-21T11:07:02.305Z,97011.15
2019-02-21T11:09:52.180Z,97008.30
2019-02-21T11:12:41.579Z,97004.41
2019-02-21T11:15:31.613Z,96995.44
2019-02-21T11:18:20.771Z,96990.92
2019-02-21T11:21:13.005Z,96983.14
2019-02-21T11:24:02.293Z,96986.67
2019-02-21T11:26:51.934Z,96984.80
2019-02-21T11:29:41.272Z,96978.47
2019-02-21T11:32:30.648Z,96983.04
2019-02-21T11:35:20.104Z,96978.97
2019-02-21T11:38:09.722Z,96978.50
2019-02-21T11:40:59.220Z,96976.95
2019-02-21T11:43:49.100Z,96973.59
2019-02-21T11:46:38.606Z,96987.71
2019-02-21T11:49:27.945Z,96974.17
2019-02-21T11:52:17.845Z,96970.11
2019-02-21T11:55:08.154Z,96962.14
2019-02-21T11:57:57.750Z,96962.11
2019-02-21T12:00:46.981Z,96965.59
2019-02-21T12:03:36.792Z,96963.70
2019-02-21T12:06:25.973Z,96966.50
2019-02-21T12:09:15.692Z,96965.88
2019-02-21T12:12:05.274Z,96966.80
2019-02-21T12:14:54.904Z,96960.71
2019-02-21T12:17:44.337Z,96958.66
2019-02-21T12:20:34.272Z,96947.41
2019-02-21T12:23:23.408Z,96941.12
2019-02-21T12:26:12.845Z,96949.38
2019-02-21T12:29:02.203Z,96945.95
2019-02-21T12:31:51.909Z,96945.05
2019-02-21T12:34:41.061Z,96941.13
2019-02-21T12:37:30.406Z,96937.19
2019-02-21T12:40:19.959Z,96934.34
2019-02-21T12:43:10.021Z,96938.55
2019-02-21T12:46:02.247Z,96917.66
2019-02-21T12:48:51.695Z,96934.20
2019-02-21T12:51:41.863Z,96938.52
2019-02-21T12:54:31.246Z,96926.89
2019-02-21T12:57:20.438Z,96925.06
2019-02-21T13:00:15.305Z,96924.79
2019-02-21T13:03:05.025Z,96927.70
2019-02-21T13:05:54.942Z,96921.11
2019-02-21T13:08:44.594Z,96933.30
2019-02-21T13:11:35.583Z,96930.05
2019-02-21T13:14:25.383Z,96926.80
2019-02-21T13:17:14.971Z,96926.12
2019-02-21T13:20:05.776Z,96929.15
2019-02-21T13:22:55.199Z,96919.30
2019-02-21T13:25:44.549Z,96929.75
2019-02-21T13:28:33.702Z,96917.66
2019-02-21T13:31:23.200Z,96932.94
2019-02-21T13:34:12.469Z,96927.40
2019-02-21T13:37:02.263Z,96923.38
2019-02-21T13:39:51.881Z,96924.14
2019-02-21T13:42:41.248Z,96924.09
2019-02-21T13:45:30.666Z,96935.70
2019-02-21T13:48:20.293Z,96925.28
2019-02-21T13:51:09.683Z,96925.08
2019-02-21T13:53:59.433Z,96923.48
2019-02-21T13:56:49.138Z,96921.96
2019-02-21T13:59:39.011Z,96918.11
2019-02-21T14:02:28.555Z,96919.51
2019-02-21T14:05:18.130Z,96915.44
2019-02-21T14:08:07.608Z,96911.33
2019-02-21T14:10:57.535Z,96922.69
2019-02-21T14:13:46.795Z,96920.96
2019-02-21T14:16:46.120Z,96925.53
2019-02-21T14:19:27.715Z,96931.45
2019-02-21T14:22:17.288Z,96933.36
2019-02-21T14:25:07.759Z,96929.48
2019-02-21T14:27:57.167Z,96928.64
2019-02-21T14:30:47.021Z,96935.76
2019-02-21T14:33:36.535Z,96937.27
2019-02-21T14:36:25.762Z,96929.76
2019-02-21T14:39:15.781Z,96930.31
2019-02-21T14:42:05.509Z,96939.89
2019-02-21T14:44:54.730Z,96931.45
2019-02-21T14:47:44.408Z,96935.34
2019-02-21T14:50:35.962Z,96928.40
2019-02-21T14:53:24.696Z,96933.66
2019-02-21T14:56:13.888Z,96935.41
2019-02-21T14:59:03.858Z,96934.11
2019-02-21T15:01:53.918Z,96925.81
2019-02-21T15:04:43.967Z,96929.15
2019-02-21T15:07:33.348Z,96917.22
2019-02-21T15:10:22.848Z,96915.48
2019-02-21T15:13:12.202Z,96924.72
2019-02-21T15:16:01.329Z,96920.44
2019-02-21T15:18:50.647Z,96920.95
2019-02-21T15:21:40.776Z,96906.75
2019-02-21T15:24:30.024Z,96909.05
2019-02-21T15:27:19.546Z,96908.90
2019-02-21T15:30:11.283Z,96903.06
2019-02-21T15:33:01.014Z,96909.23
2019-02-21T15:35:50.124Z,96898.79
2019-02-21T15:38:40.004Z,96895.91
2019-02-21T15:41:29.480Z,96902.14
2019-02-21T15:44:19.328Z,96909.21
2019-02-21T15:47:08.896Z,96910.20
2019-02-21T15:49:58.073Z,96913.84
2019-02-21T15:52:47.380Z,96905.63
2019-02-21T15:55:37.117Z,96900.89
2019-02-21T15:58:26.560Z,96901.25
2019-02-21T16:01:16.234Z,96903.36
2019-02-21T16:04:06.498Z,96900.52
2019-02-21T16:06:56.107Z,96898.87
2019-02-21T16:09:45.797Z,96901.09
2019-02-21T16:12:35.233Z,96904.98
2019-02-21T16:15:25.076Z,96906.06
2019-02-21T16:18:14.519Z,96902.41
2019-02-21T16:21:04.618Z,96908.33
2019-02-21T16:23:54.274Z,96907.28
2019-02-21T16:26:43.445Z,96911.70
2019-02-21T16:29:32.931Z,96919.52
2019-02-21T16:32:22.486Z,96926.65
2019-02-21T16:35:12.212Z,96918.20
2019-02-21T16:38:01.387Z,96918.59
2019-02-21T16:40:51.212Z,96918.48
2019-02-21T16:43:40.867Z,96921.06
2019-02-21T16:46:30.549Z,96919.14
2019-02-21T16:49:19.737Z,96918.82
2019-02-21T16:52:09.858Z,96925.61
2019-02-21T16:54:59.003Z,96928.13
2019-02-21T16:57:48.589Z,96929.14
2019-02-21T17:00:50.382Z,96927.48
2019-02-21T17:03:30.601Z,96929.05
2019-02-21T17:06:20.420Z,96935.80
2019-02-21T17:09:11.953Z,96931.25
2019-02-21T17:15:39.621Z,96930.29
2019-02-21T17:18:28.855Z,96937.16
2019-02-21T17:21:20.921Z,96939.71
2019-02-21T17:24:10.923Z,96936.59
2019-02-21T17:27:00.870Z,96942.98
2019-02-21T17:29:50.487Z,96935.11
2019-02-21T17:32:40.010Z,96930.95
2019-02-21T17:35:29.624Z,96935.03
2019-02-21T17:38:18.724Z,96929.58
2019-02-21T17:41:08.194Z,96928.60
2019-02-21T17:43:57.288Z,96931.39
2019-02-21T17:46:46.501Z,96932.29
2019-02-21T17:49:36.437Z,96932.40
2019-02-21T17:55:13.718Z,96919.97
2019-02-21T17:58:03.096Z,96913.48
2019-02-21T18:00:52.256Z,96917.52
2019-02-21T18:03:41.625Z,96907.94
2019-02-21T18:06:31.787Z,96913.30
2019-02-21T18:09:21.273Z,96901.91
2019-02-21T18:12:11.175Z,96899.74
2019-02-21T18:15:00.731Z,96896.09
2019-02-21T18:17:50.337Z,96897.06
2019-02-21T18:20:39.687Z,96895.70
2019-02-21T18:23:29.676Z,96887.14
2019-02-21T18:26:20.058Z,96889.72
2019-02-21T18:29:12.472Z,96890.61
2019-02-21T18:32:02.218Z,96889.16
2019-02-21T18:34:51.646Z,96887.59
2019-02-21T18:37:47.291Z,96875.64
2019-02-21T18:40:32.000Z,96883.86
2019-02-21T18:43:21.482Z,96876.09
2019-02-21T18:46:11.028Z,96877.65
2019-02-21T18:49:00.652Z,96871.52
2019-02-21T18:51:50.384Z,96867.70
2019-02-21T18:54:39.974Z,96871.23
2019-02-21T18:57:29.680Z,96858.27
2019-02-21T19:00:20.345Z,96858.48
2019-02-21T19:03:10.311Z,96861.76
2019-02-21T19:05:59.698Z,96863.05
2019-02-21T19:08:49.125Z,96854.19
2019-02-21T19:11:38.733Z,96865.49
2019-02-21T19:14:27.988Z,96863.15
2019-02-21T19:17:17.503Z,96858.11
2019-02-21T19:20:08.936Z,96857.47
2019-02-21T19:22:58.844Z,96854.11
2019-02-21T19:25:48.350Z,96856.48
2019-02-21T19:28:37.906Z,96850.43
2019-02-21T19:31:27.864Z,96858.39
2019-02-21T19:34:17.246Z,96859.38
2019-02-21T19:37:07.124Z,96863.30
2019-02-21T19:39:56.452Z,96858.38
2019-02-21T19:42:49.136Z,96868.52
2019-02-21T19:45:38.451Z,96871.36
2019-02-21T19:48:28.213Z,96872.63
2019-02-21T19:51:17.844Z,96873.64
2019-02-21T19:54:10.371Z,96878.39
2019-02-21T19:56:59.790Z,96873.08
2019-02-21T19:59:49.362Z,96877.47
2019-02-21T20:02:39.063Z,96882.38
2019-02-21T20:05:29.454Z,96883.48
2019-02-21T20:08:21.572Z,96887.66
2019-02-21T20:11:10.331Z,96884.92
2019-02-21T20:13:59.881Z,96889.08
2019-02-21T20:16:49.216Z,96876.61
2019-02-21T20:19:39.974Z,96884.05
2019-02-21T20:22:30.102Z,96885.78
2019-02-21T20:25:20.636Z,96886.31
2019-02-21T20:28:10.966Z,96873.25
2019-02-21T20:31:00.555Z,96870.88
2019-02-21T20:33:50.521Z,96869.89
2019-02-21T20:36:50.472Z,96867.64
2019-02-21T20:39:30.957Z,96865.80
2019-02-21T20:42:20.209Z,96868.17
2019-02-21T20:45:10.302Z,96870.94
2019-02-21T20:47:59.785Z,96864.48
2019-02-21T20:50:56.888Z,96872.84
2019-02-21T20:53:40.584Z,96869.13
2019-02-21T20:56:30.108Z,96870.25
2019-02-21T20:59:19.954Z,96863.19
2019-02-21T21:02:11.296Z,96862.63
2019-02-21T21:05:00.773Z,96865.45
2019-02-21T21:07:50.393Z,96869.75
2019-02-21T21:10:40.806Z,96857.08
2019-02-21T21:13:30.432Z,96863.72
2019-02-21T21:16:20.482Z,96865.28
2019-02-21T21:19:12.744Z,96858.41
2019-02-21T21:22:01.949Z,96857.81
2019-02-21T21:24:51.957Z,96853.42
2019-02-21T21:27:41.464Z,96855.41
2019-02-21T21:30:30.901Z,96850.48
2019-02-21T21:33:20.210Z,96849.70
2019-02-21T21:36:09.559Z,96850.09
2019-02-21T21:38:58.971Z,96846.45
2019-02-21T21:41:48.189Z,96836.11
2019-02-21T21:44:37.344Z,96846.56
2019-02-21T21:47:27.297Z,96843.68
2019-02-21T21:50:17.291Z,96851.23
2019-02-21T21:53:06.928Z,96847.15
2019-02-21T21:55:56.241Z,96847.95
2019-02-21T21:58:45.836Z,96847.06
2019-02-21T22:01:35.345Z,96761.27
2019-02-21T22:04:25.282Z,96851.59
2019-02-21T22:07:14.788Z,96861.77
2019-02-21T22:10:05.309Z,96859.56
2019-02-21T22:12:54.998Z,96853.75
2019-02-21T22:15:44.933Z,96853.45
2019-02-21T22:18:34.319Z,96859.38
2019-02-21T22:21:24.169Z,96853.70
2019-02-21T22:24:13.415Z,96854.67
2019-02-21T22:27:03.681Z,96857.31
2019-02-21T22:29:53.093Z,96854.72
2019-02-21T22:32:43.072Z,96851.56
2019-02-21T22:35:32.552Z,96860.57
2019-02-21T22:38:21.884Z,96858.23
2019-02-21T22:41:11.109Z,96860.92
2019-02-21T22:44:00.695Z,96871.34
2019-02-21T22:46:49.900Z,96869.98
2019-02-21T22:49:39.559Z,96865.72
2019-02-21T22:52:28.735Z,96873.98
2019-02-21T22:55:18.492Z,96874.11
2019-02-21T22:58:08.072Z,96869.53
2019-02-21T23:01:23.592Z,96867.64
2019-02-21T23:04:51.503Z,96869.14
2019-02-21T23:07:48.053Z,96865.09
2019-02-21T23:10:37.535Z,96849.62
2019-02-21T23:13:26.660Z,96850.28
2019-02-21T23:16:16.478Z,96846.98
2019-02-21T23:19:07.815Z,96843.20
2019-02-21T23:21:57.415Z,96836.91
2019-02-21T23:24:46.639Z,96842.55
2019-02-21T23:27:36.668Z,96846.90
2019-02-21T23:30:25.969Z,96840.17
2019-02-21T23:33:15.090Z,96840.56
2019-02-21T23:36:04.728Z,96843.63
2019-02-21T23:38:54.035Z,96845.67
2019-02-21T23:41:43.640Z,96848.44
2019-02-21T23:44:33.485Z,96850.90
2019-02-21T23:47:23.072Z,96843.78
2019-02-21T23:50:13.066Z,96838.67
2019-02-21T23:53:02.294Z,96836.00
2019-02-21T23:55:52.180Z,96834.49
2019-02-21T23:58:41.681Z,96846.06
